SXA weather

Santa Cecilia Airport
Cajeme, Sonora, Mexico

Public forecast

Using degrees Celsius for public forecast. Weather courtesy of forecast.io.

METAR (pilot weather report)

Closest report is Ciudad Obregón International Airport, 5.8 nm (10.7 km) ENE. Retrieved 2019/06/16 16:44 UTC (0 seconds ago):

MMCN 161644Z 16006KT 10SM SKC 32/13 A2982 RMK HZY

TAF (pilot weather forecast)

Forecast is more than 6 hours old.

Closest forecast is Ciudad Obregón International Airport, 5.8 nm (10.7 km) ENE. Retrieved 2019/06/16 06:51 UTC (10 hours ago):

TAF TAF MMCN 160449Z 1606/1706 23005KT P6SM SKC FM161900 20012KT P6SM SKC FM170300 23005KT P6SM SKC